BOC328 FALE-FMMI
Flight info
| Callsign | BOC328 |
|---|---|
| Flight time | 2h 19m |
| Altitude | 35000 |
| Route | ITMIL1C ITMIL DCT RBV DCT EROPA UB536 SOPVI DCT TW TW1B |
| Aircraft | B77L/H-SDE1E2E3FGHIJ2J3J4J5M1RWXY/LB1D1 |
Departure
| Time | 2026-05-07 11:28 |
|---|---|
| Airport | King Shaka International Airport (FALE) |
Arrival
| Time | 2026-05-07 13:47 |
|---|---|
| Airport | Ivato International Airport (FMMI) |
| Time | Latitude | Longitude | Altitude | Speed | Heading |
|---|---|---|---|---|---|
| 2026-05-07 11:02 | -29.60923 | 31.11394 | 311 ft | 0 kts | 37° |
| 2026-05-07 11:16 | -29.60939 | 31.11380 | 310 ft | 4 kts | 37° |
| 2026-05-07 11:17 | -29.60961 | 31.11361 | 309 ft | 4 kts | 37° |
| 2026-05-07 11:17 | -29.60980 | 31.11344 | 310 ft | 4 kts | 39° |
| 2026-05-07 11:17 | -29.60994 | 31.11323 | 308 ft | 4 kts | 92° |
| 2026-05-07 11:17 | -29.60985 | 31.11298 | 308 ft | 4 kts | 130° |
| 2026-05-07 11:18 | -29.60976 | 31.11286 | 310 ft | 1 kts | 128° |
| 2026-05-07 11:18 | -29.60975 | 31.11284 | 310 ft | 0 kts | 128° |
| 2026-05-07 11:20 | -29.60985 | 31.11297 | 308 ft | 3 kts | 136° |
| 2026-05-07 11:20 | -29.61005 | 31.11306 | 309 ft | 3 kts | 168° |
| 2026-05-07 11:20 | -29.61026 | 31.11301 | 310 ft | 3 kts | 202° |
| 2026-05-07 11:21 | -29.61044 | 31.11287 | 311 ft | 3 kts | 215° |
| 2026-05-07 11:21 | -29.61062 | 31.11272 | 312 ft | 4 kts | 215° |
| 2026-05-07 11:21 | -29.61136 | 31.11243 | 311 ft | 13 kts | 158° |
| 2026-05-07 11:21 | -29.61195 | 31.11324 | 313 ft | 13 kts | 128° |
| 2026-05-07 11:22 | -29.61251 | 31.11409 | 314 ft | 13 kts | 127° |
| 2026-05-07 11:22 | -29.61307 | 31.11493 | 311 ft | 13 kts | 127° |
| 2026-05-07 11:22 | -29.61377 | 31.11511 | 311 ft | 12 kts | 215° |
| 2026-05-07 11:22 | -29.61441 | 31.11456 | 311 ft | 12 kts | 217° |
| 2026-05-07 11:23 | -29.61505 | 31.11400 | 313 ft | 12 kts | 218° |
| 2026-05-07 11:23 | -29.61568 | 31.11343 | 312 ft | 12 kts | 217° |
| 2026-05-07 11:23 | -29.61633 | 31.11288 | 310 ft | 12 kts | 216° |
| 2026-05-07 11:23 | -29.61697 | 31.11233 | 312 ft | 12 kts | 217° |
| 2026-05-07 11:24 | -29.61761 | 31.11177 | 312 ft | 12 kts | 217° |
| 2026-05-07 11:24 | -29.61825 | 31.11122 | 312 ft | 12 kts | 218° |
| 2026-05-07 11:24 | -29.61895 | 31.11059 | 312 ft | 14 kts | 218° |
| 2026-05-07 11:24 | -29.61969 | 31.10992 | 314 ft | 14 kts | 218° |
| 2026-05-07 11:25 | -29.62043 | 31.10926 | 314 ft | 14 kts | 218° |
| 2026-05-07 11:25 | -29.62119 | 31.10861 | 310 ft | 14 kts | 216° |
| 2026-05-07 11:25 | -29.62194 | 31.10797 | 311 ft | 14 kts | 216° |
| 2026-05-07 11:25 | -29.62271 | 31.10734 | 311 ft | 14 kts | 216° |
| 2026-05-07 11:26 | -29.62346 | 31.10670 | 313 ft | 14 kts | 217° |
| 2026-05-07 11:26 | -29.62427 | 31.10676 | 312 ft | 14 kts | 132° |
| 2026-05-07 11:26 | -29.62492 | 31.10761 | 308 ft | 11 kts | 130° |
| 2026-05-07 11:26 | -29.62476 | 31.10801 | 309 ft | 8 kts | 34° |
| 2026-05-07 11:27 | -29.62327 | 31.10929 | 311 ft | 56 kts | 37° |
| 2026-05-07 11:27 | -29.61844 | 31.11350 | 308 ft | 118 kts | 37° |
| 2026-05-07 11:27 | -29.61049 | 31.12043 | 313 ft | 167 kts | 37° |
| 2026-05-07 11:27 | -29.60038 | 31.12919 | 490 ft | 186 kts | 38° |
| 2026-05-07 11:28 | -29.59034 | 31.13800 | 1162 ft | 179 kts | 39° |
| 2026-05-07 11:28 | -29.58030 | 31.14683 | 1627 ft | 187 kts | 39° |
| 2026-05-07 11:28 | -29.56993 | 31.15639 | 2005 ft | 198 kts | 41° |
| 2026-05-07 11:28 | -29.55961 | 31.16801 | 2197 ft | 218 kts | 46° |
| 2026-05-07 11:29 | -29.54858 | 31.18140 | 2414 ft | 244 kts | 46° |
| 2026-05-07 11:29 | -29.53645 | 31.19629 | 2768 ft | 263 kts | 46° |
| 2026-05-07 11:29 | -29.52382 | 31.21202 | 3448 ft | 269 kts | 46° |
| 2026-05-07 11:29 | -29.51103 | 31.22786 | 4208 ft | 273 kts | 45° |
| 2026-05-07 11:30 | -29.49798 | 31.24390 | 4926 ft | 276 kts | 45° |
| 2026-05-07 11:30 | -29.48481 | 31.26007 | 5706 ft | 278 kts | 44° |
| 2026-05-07 11:30 | -29.47150 | 31.27637 | 6372 ft | 282 kts | 44° |
| 2026-05-07 11:30 | -29.45796 | 31.29295 | 7015 ft | 287 kts | 44° |
| 2026-05-07 11:31 | -29.44411 | 31.30985 | 7594 ft | 294 kts | 44° |
| 2026-05-07 11:31 | -29.42994 | 31.32705 | 8195 ft | 299 kts | 44° |
| 2026-05-07 11:31 | -29.41554 | 31.34456 | 8829 ft | 304 kts | 44° |
| 2026-05-07 11:31 | -29.40095 | 31.36238 | 9488 ft | 307 kts | 44° |
| 2026-05-07 11:32 | -29.37107 | 31.39867 | 10417 ft | 330 kts | 43° |
| 2026-05-07 11:32 | -29.35477 | 31.41847 | 10609 ft | 353 kts | 43° |
| 2026-05-07 11:32 | -29.34315 | 31.43258 | 10719 ft | 368 kts | 44° |
| 2026-05-07 11:33 | -29.32537 | 31.45421 | 11075 ft | 384 kts | 44° |
| 2026-05-07 11:33 | -29.30688 | 31.47668 | 11747 ft | 391 kts | 43° |
| 2026-05-07 11:33 | -29.28816 | 31.49943 | 12616 ft | 393 kts | 43° |
| 2026-05-07 11:33 | -29.26941 | 31.52223 | 13555 ft | 394 kts | 43° |
| 2026-05-07 11:34 | -29.25052 | 31.54517 | 14288 ft | 399 kts | 43° |
| 2026-05-07 11:34 | -29.23126 | 31.56852 | 14872 ft | 408 kts | 43° |
| 2026-05-07 11:34 | -29.21158 | 31.59238 | 15511 ft | 415 kts | 42° |
| 2026-05-07 11:34 | -29.19163 | 31.61652 | 16115 ft | 421 kts | 42° |
| 2026-05-07 11:35 | -29.17152 | 31.64120 | 16737 ft | 427 kts | 42° |
| 2026-05-07 11:35 | -29.15100 | 31.66610 | 17359 ft | 432 kts | 41° |
| 2026-05-07 11:35 | -29.13001 | 31.69109 | 17940 ft | 439 kts | 41° |
| 2026-05-07 11:35 | -29.10888 | 31.71656 | 18439 ft | 442 kts | 41° |
| 2026-05-07 11:36 | -29.08773 | 31.74224 | 18997 ft | 446 kts | 41° |
| 2026-05-07 11:36 | -29.06635 | 31.76810 | 19660 ft | 448 kts | 41° |
| 2026-05-07 11:36 | -29.04477 | 31.79390 | 20355 ft | 452 kts | 40° |
| 2026-05-07 11:36 | -29.02310 | 31.81984 | 21089 ft | 450 kts | 39° |
| 2026-05-07 11:37 | -29.00030 | 31.84438 | 21766 ft | 449 kts | 34° |
| 2026-05-07 11:37 | -28.97654 | 31.86798 | 22239 ft | 456 kts | 33° |
| 2026-05-07 11:37 | -28.95165 | 31.89139 | 22870 ft | 457 kts | 31° |
| 2026-05-07 11:37 | -28.92707 | 31.91387 | 23443 ft | 460 kts | 32° |
| 2026-05-07 11:38 | -28.90216 | 31.93721 | 23893 ft | 466 kts | 32° |
| 2026-05-07 11:38 | -28.87718 | 31.96099 | 24354 ft | 470 kts | 32° |
| 2026-05-07 11:38 | -28.85221 | 31.98506 | 24834 ft | 471 kts | 32° |
| 2026-05-07 11:38 | -28.82728 | 32.00936 | 25178 ft | 473 kts | 35° |
| 2026-05-07 11:39 | -28.80468 | 32.03761 | 25420 ft | 490 kts | 44° |
| 2026-05-07 11:39 | -28.78405 | 32.06896 | 25726 ft | 495 kts | 47° |
| 2026-05-07 11:39 | -28.76415 | 32.10053 | 25555 ft | 484 kts | 47° |
| 2026-05-07 11:39 | -28.74490 | 32.13126 | 25579 ft | 471 kts | 46° |
| 2026-05-07 11:40 | -28.72574 | 32.16145 | 25558 ft | 465 kts | 42° |
| 2026-05-07 11:40 | -28.70461 | 32.18873 | 25572 ft | 461 kts | 40° |
| 2026-05-07 11:40 | -28.68370 | 32.21666 | 25538 ft | 468 kts | 41° |
| 2026-05-07 11:40 | -28.66312 | 32.24499 | 25507 ft | 463 kts | 42° |
| 2026-05-07 11:41 | -28.64271 | 32.27315 | 25510 ft | 459 kts | 42° |
| 2026-05-07 11:41 | -28.62257 | 32.30130 | 25552 ft | 460 kts | 43° |
| 2026-05-07 11:41 | -28.60301 | 32.33019 | 25532 ft | 460 kts | 44° |
| 2026-05-07 11:41 | -28.58317 | 32.35860 | 25520 ft | 459 kts | 42° |
| 2026-05-07 11:42 | -28.56289 | 32.38672 | 25527 ft | 460 kts | 41° |
| 2026-05-07 11:42 | -28.54219 | 32.41459 | 25538 ft | 463 kts | 41° |
| 2026-05-07 11:42 | -28.52127 | 32.44262 | 25755 ft | 467 kts | 41° |
| 2026-05-07 11:42 | -28.50016 | 32.47098 | 26066 ft | 476 kts | 41° |
| 2026-05-07 11:43 | -28.47848 | 32.50015 | 26147 ft | 489 kts | 41° |
| 2026-05-07 11:43 | -28.45644 | 32.53000 | 26384 ft | 497 kts | 41° |
| 2026-05-07 11:43 | -28.43420 | 32.56031 | 26778 ft | 501 kts | 41° |
| 2026-05-07 11:43 | -28.41187 | 32.59083 | 27256 ft | 503 kts | 41° |
| 2026-05-07 11:44 | -28.38948 | 32.62149 | 27701 ft | 506 kts | 40° |
| 2026-05-07 11:44 | -28.36689 | 32.65234 | 28076 ft | 510 kts | 40° |
| 2026-05-07 11:44 | -28.34410 | 32.68339 | 28434 ft | 514 kts | 40° |
| 2026-05-07 11:44 | -28.32112 | 32.71465 | 28779 ft | 517 kts | 40° |
| 2026-05-07 11:45 | -28.29799 | 32.74607 | 29153 ft | 520 kts | 40° |
| 2026-05-07 11:45 | -28.27470 | 32.77766 | 29469 ft | 523 kts | 40° |
| 2026-05-07 11:45 | -28.25127 | 32.80942 | 29808 ft | 526 kts | 39° |
| 2026-05-07 11:45 | -28.22771 | 32.84135 | 30088 ft | 529 kts | 39° |
| 2026-05-07 11:46 | -28.20404 | 32.87343 | 30358 ft | 531 kts | 40° |
| 2026-05-07 11:46 | -28.18036 | 32.90554 | 30740 ft | 529 kts | 39° |
| 2026-05-07 11:46 | -28.15691 | 32.93738 | 31299 ft | 524 kts | 39° |
| 2026-05-07 11:46 | -28.13361 | 32.96897 | 31736 ft | 522 kts | 39° |
| 2026-05-07 11:47 | -28.11025 | 33.00053 | 32041 ft | 523 kts | 39° |
| 2026-05-07 11:47 | -28.08683 | 33.03207 | 32332 ft | 524 kts | 39° |
| 2026-05-07 11:47 | -28.06336 | 33.06366 | 32689 ft | 523 kts | 39° |
| 2026-05-07 11:47 | -28.03998 | 33.09516 | 33066 ft | 522 kts | 39° |
| 2026-05-07 11:48 | -28.01662 | 33.12660 | 33400 ft | 522 kts | 39° |
| 2026-05-07 11:48 | -27.99328 | 33.15799 | 33706 ft | 522 kts | 39° |
| 2026-05-07 11:48 | -27.97002 | 33.18929 | 34146 ft | 516 kts | 39° |
| 2026-05-07 11:48 | -27.94709 | 33.22019 | 34673 ft | 510 kts | 39° |
| 2026-05-07 11:49 | -27.92456 | 33.25044 | 34822 ft | 512 kts | 39° |
| 2026-05-07 11:49 | -27.87862 | 33.31191 | 34795 ft | 510 kts | 39° |
| 2026-05-07 11:50 | -27.83302 | 33.37300 | 34810 ft | 507 kts | 39° |
| 2026-05-07 11:50 | -27.78752 | 33.43381 | 34818 ft | 506 kts | 39° |
| 2026-05-07 11:51 | -27.74214 | 33.49436 | 34817 ft | 505 kts | 39° |
| 2026-05-07 11:51 | -27.69674 | 33.55484 | 34817 ft | 505 kts | 39° |
| 2026-05-07 11:52 | -27.65130 | 33.61533 | 34818 ft | 506 kts | 39° |
| 2026-05-07 11:52 | -27.60579 | 33.67583 | 34820 ft | 506 kts | 39° |
| 2026-05-07 11:53 | -27.56012 | 33.73645 | 34811 ft | 507 kts | 39° |
| 2026-05-07 11:53 | -27.51436 | 33.79710 | 34837 ft | 509 kts | 39° |
| 2026-05-07 11:54 | -27.46846 | 33.85790 | 34817 ft | 509 kts | 40° |
| 2026-05-07 11:54 | -27.42249 | 33.91868 | 34826 ft | 510 kts | 40° |
| 2026-05-07 11:55 | -27.37642 | 33.97949 | 34813 ft | 511 kts | 40° |
| 2026-05-07 11:55 | -27.33033 | 34.04027 | 34823 ft | 510 kts | 40° |
| 2026-05-07 11:56 | -27.28423 | 34.10095 | 34828 ft | 510 kts | 40° |
| 2026-05-07 11:56 | -27.23813 | 34.16155 | 34829 ft | 509 kts | 40° |
| 2026-05-07 11:57 | -27.19213 | 34.22195 | 34809 ft | 508 kts | 40° |
| 2026-05-07 11:57 | -27.14619 | 34.28218 | 34823 ft | 507 kts | 40° |
| 2026-05-07 11:58 | -27.10030 | 34.34224 | 34800 ft | 506 kts | 40° |
| 2026-05-07 11:58 | -27.05487 | 34.40161 | 34828 ft | 504 kts | 40° |
| 2026-05-07 11:59 | -27.00917 | 34.46126 | 34838 ft | 504 kts | 40° |
| 2026-05-07 11:59 | -26.96341 | 34.52089 | 34829 ft | 504 kts | 40° |
| 2026-05-07 12:00 | -26.91769 | 34.58045 | 34836 ft | 504 kts | 40° |
| 2026-05-07 12:00 | -26.87194 | 34.63998 | 34843 ft | 504 kts | 40° |
| 2026-05-07 12:01 | -26.82610 | 34.69947 | 34842 ft | 504 kts | 40° |
| 2026-05-07 12:01 | -26.78022 | 34.75895 | 34843 ft | 505 kts | 40° |
| 2026-05-07 12:02 | -26.73432 | 34.81839 | 34833 ft | 505 kts | 40° |
| 2026-05-07 12:02 | -26.68841 | 34.87779 | 34846 ft | 504 kts | 40° |
| 2026-05-07 12:03 | -26.64254 | 34.93703 | 34852 ft | 504 kts | 40° |
| 2026-05-07 12:03 | -26.59659 | 34.99627 | 34834 ft | 504 kts | 40° |
| 2026-05-07 12:04 | -26.55070 | 35.05536 | 34853 ft | 503 kts | 40° |
| 2026-05-07 12:04 | -26.50486 | 35.11437 | 34858 ft | 503 kts | 40° |
| 2026-05-07 12:05 | -26.45899 | 35.17330 | 34860 ft | 503 kts | 40° |
| 2026-05-07 12:05 | -26.41311 | 35.23212 | 34858 ft | 503 kts | 40° |
| 2026-05-07 12:06 | -26.36720 | 35.29095 | 34849 ft | 502 kts | 40° |
| 2026-05-07 12:06 | -26.32162 | 35.34928 | 34859 ft | 502 kts | 40° |
| 2026-05-07 12:07 | -26.27542 | 35.40831 | 34867 ft | 502 kts | 40° |
| 2026-05-07 12:07 | -26.22946 | 35.46694 | 34868 ft | 502 kts | 40° |
| 2026-05-07 12:08 | -26.18381 | 35.52511 | 34852 ft | 502 kts | 41° |
| 2026-05-07 12:08 | -26.13784 | 35.58364 | 34879 ft | 502 kts | 41° |
| 2026-05-07 12:09 | -26.09181 | 35.64217 | 34878 ft | 502 kts | 40° |
| 2026-05-07 12:09 | -26.04576 | 35.70064 | 34867 ft | 503 kts | 40° |
| 2026-05-07 12:10 | -25.99955 | 35.75914 | 34848 ft | 504 kts | 41° |
| 2026-05-07 12:10 | -25.95336 | 35.81770 | 34876 ft | 504 kts | 41° |
| 2026-05-07 12:11 | -25.90714 | 35.87614 | 34869 ft | 503 kts | 41° |
| 2026-05-07 12:11 | -25.86090 | 35.93454 | 34873 ft | 504 kts | 41° |
| 2026-05-07 12:12 | -25.81458 | 35.99295 | 34874 ft | 503 kts | 41° |
| 2026-05-07 12:12 | -25.76829 | 36.05128 | 34877 ft | 504 kts | 41° |
| 2026-05-07 12:13 | -25.72194 | 36.10959 | 34883 ft | 504 kts | 41° |
| 2026-05-07 12:13 | -25.67558 | 36.16786 | 34882 ft | 504 kts | 41° |
| 2026-05-07 12:14 | -25.62915 | 36.22613 | 34879 ft | 504 kts | 41° |
| 2026-05-07 12:14 | -25.58271 | 36.28433 | 34875 ft | 504 kts | 41° |
| 2026-05-07 12:15 | -25.53630 | 36.34237 | 34864 ft | 503 kts | 41° |
| 2026-05-07 12:15 | -25.49001 | 36.40026 | 34877 ft | 502 kts | 41° |
| 2026-05-07 12:16 | -25.44371 | 36.45812 | 34889 ft | 502 kts | 41° |
| 2026-05-07 12:16 | -25.39742 | 36.51585 | 34870 ft | 501 kts | 41° |
| 2026-05-07 12:17 | -25.35117 | 36.57340 | 34882 ft | 500 kts | 41° |
| 2026-05-07 12:17 | -25.30494 | 36.63089 | 34888 ft | 500 kts | 41° |
| 2026-05-07 12:18 | -25.26657 | 36.67862 | 34893 ft | 499 kts | 41° |
| 2026-05-07 12:18 | -25.22038 | 36.73594 | 34892 ft | 499 kts | 41° |
| 2026-05-07 12:19 | -25.17416 | 36.79321 | 34895 ft | 499 kts | 41° |
| 2026-05-07 12:19 | -25.12802 | 36.85033 | 34895 ft | 499 kts | 41° |
| 2026-05-07 12:20 | -25.08182 | 36.90747 | 34898 ft | 499 kts | 41° |
| 2026-05-07 12:20 | -25.03552 | 36.96463 | 34901 ft | 500 kts | 41° |
| 2026-05-07 12:21 | -24.98913 | 37.02183 | 34886 ft | 501 kts | 41° |
| 2026-05-07 12:21 | -24.94267 | 37.07907 | 34905 ft | 501 kts | 41° |
| 2026-05-07 12:22 | -24.89644 | 37.13596 | 34899 ft | 502 kts | 41° |
| 2026-05-07 12:22 | -24.84948 | 37.19366 | 34906 ft | 502 kts | 41° |
| 2026-05-07 12:23 | -24.80313 | 37.25052 | 34902 ft | 503 kts | 41° |
| 2026-05-07 12:23 | -24.75642 | 37.30779 | 34893 ft | 503 kts | 41° |
| 2026-05-07 12:24 | -24.70964 | 37.36510 | 34914 ft | 504 kts | 41° |
| 2026-05-07 12:24 | -24.66278 | 37.42239 | 34916 ft | 504 kts | 41° |
| 2026-05-07 12:25 | -24.61588 | 37.47975 | 34891 ft | 504 kts | 41° |
| 2026-05-07 12:25 | -24.56897 | 37.53695 | 34918 ft | 504 kts | 41° |
| 2026-05-07 12:26 | -24.52203 | 37.59412 | 34925 ft | 504 kts | 41° |
| 2026-05-07 12:26 | -24.47504 | 37.65131 | 34916 ft | 504 kts | 41° |
| 2026-05-07 12:27 | -24.42807 | 37.70840 | 34924 ft | 504 kts | 41° |
| 2026-05-07 12:27 | -24.38105 | 37.76550 | 34899 ft | 504 kts | 41° |
| 2026-05-07 12:28 | -24.33409 | 37.82246 | 34922 ft | 504 kts | 41° |
| 2026-05-07 12:28 | -24.28907 | 37.88179 | 34923 ft | 511 kts | 50° |
| 2026-05-07 12:29 | -24.25260 | 37.94935 | 34935 ft | 516 kts | 54° |
| 2026-05-07 12:29 | -24.21698 | 38.01776 | 34931 ft | 517 kts | 54° |
| 2026-05-07 12:30 | -24.18100 | 38.08594 | 34928 ft | 517 kts | 54° |
| 2026-05-07 12:30 | -24.14480 | 38.15392 | 34934 ft | 517 kts | 54° |
| 2026-05-07 12:31 | -24.10848 | 38.22191 | 34923 ft | 517 kts | 54° |
| 2026-05-07 12:31 | -24.07218 | 38.28979 | 34937 ft | 517 kts | 54° |
| 2026-05-07 12:32 | -24.03577 | 38.35779 | 34932 ft | 518 kts | 54° |
| 2026-05-07 12:32 | -23.99938 | 38.42572 | 34937 ft | 518 kts | 54° |
| 2026-05-07 12:33 | -23.94473 | 38.52754 | 34939 ft | 518 kts | 54° |
| 2026-05-07 12:33 | -23.90825 | 38.59541 | 34941 ft | 517 kts | 53° |
| 2026-05-07 12:34 | -23.87178 | 38.66316 | 34927 ft | 517 kts | 53° |
| 2026-05-07 12:34 | -23.83529 | 38.73086 | 34944 ft | 517 kts | 53° |
| 2026-05-07 12:35 | -23.79878 | 38.79849 | 34946 ft | 517 kts | 53° |
| 2026-05-07 12:35 | -23.76245 | 38.86566 | 34933 ft | 517 kts | 53° |
| 2026-05-07 12:36 | -23.72586 | 38.93321 | 34936 ft | 517 kts | 53° |
| 2026-05-07 12:36 | -23.68923 | 39.00078 | 34944 ft | 517 kts | 53° |
| 2026-05-07 12:37 | -23.65256 | 39.06832 | 34942 ft | 517 kts | 53° |
| 2026-05-07 12:37 | -23.61585 | 39.13589 | 34933 ft | 518 kts | 53° |
| 2026-05-07 12:38 | -23.57912 | 39.20340 | 34941 ft | 518 kts | 53° |
| 2026-05-07 12:38 | -23.54228 | 39.27093 | 34945 ft | 518 kts | 53° |
| 2026-05-07 12:39 | -23.50541 | 39.33848 | 34946 ft | 518 kts | 53° |
| 2026-05-07 12:39 | -23.46855 | 39.40597 | 34938 ft | 518 kts | 53° |
| 2026-05-07 12:40 | -23.43163 | 39.47340 | 34952 ft | 518 kts | 53° |
| 2026-05-07 12:40 | -23.39470 | 39.54080 | 34946 ft | 518 kts | 53° |
| 2026-05-07 12:41 | -23.35773 | 39.60817 | 34941 ft | 519 kts | 53° |
| 2026-05-07 12:41 | -23.32069 | 39.67560 | 34952 ft | 519 kts | 53° |
| 2026-05-07 12:42 | -23.28365 | 39.74294 | 34948 ft | 519 kts | 53° |
| 2026-05-07 12:42 | -23.24655 | 39.81024 | 34943 ft | 519 kts | 53° |
| 2026-05-07 12:43 | -23.20942 | 39.87757 | 34952 ft | 519 kts | 53° |
| 2026-05-07 12:43 | -23.17220 | 39.94493 | 34952 ft | 520 kts | 53° |
| 2026-05-07 12:44 | -23.13517 | 40.01188 | 34953 ft | 521 kts | 53° |
| 2026-05-07 12:44 | -23.09775 | 40.07940 | 34952 ft | 522 kts | 53° |
| 2026-05-07 12:45 | -23.06032 | 40.14690 | 34960 ft | 522 kts | 53° |
| 2026-05-07 12:45 | -23.02281 | 40.21446 | 34955 ft | 522 kts | 53° |
| 2026-05-07 12:46 | -22.98527 | 40.28196 | 34954 ft | 522 kts | 53° |
| 2026-05-07 12:46 | -22.94772 | 40.34941 | 34959 ft | 522 kts | 53° |
| 2026-05-07 12:47 | -22.91022 | 40.41672 | 34958 ft | 521 kts | 53° |
| 2026-05-07 12:47 | -22.87263 | 40.48402 | 34952 ft | 522 kts | 53° |
| 2026-05-07 12:48 | -22.83502 | 40.55127 | 34959 ft | 521 kts | 53° |
| 2026-05-07 12:48 | -22.79741 | 40.61849 | 34966 ft | 522 kts | 53° |
| 2026-05-07 12:49 | -22.75974 | 40.68571 | 34942 ft | 522 kts | 53° |
| 2026-05-07 12:49 | -22.72204 | 40.75287 | 34960 ft | 522 kts | 53° |
| 2026-05-07 12:50 | -22.68431 | 40.82006 | 34963 ft | 522 kts | 53° |
| 2026-05-07 12:50 | -22.64649 | 40.88724 | 34961 ft | 523 kts | 53° |
| 2026-05-07 12:51 | -22.60861 | 40.95448 | 34957 ft | 523 kts | 53° |
| 2026-05-07 12:51 | -22.57072 | 41.02165 | 34965 ft | 523 kts | 53° |
| 2026-05-07 12:52 | -22.53280 | 41.08879 | 34961 ft | 523 kts | 53° |
| 2026-05-07 12:52 | -22.49485 | 41.15591 | 34958 ft | 523 kts | 53° |
| 2026-05-07 12:53 | -22.45712 | 41.22252 | 34966 ft | 523 kts | 53° |
| 2026-05-07 12:53 | -22.41913 | 41.28953 | 34966 ft | 523 kts | 53° |
| 2026-05-07 12:54 | -22.38111 | 41.35651 | 34952 ft | 523 kts | 54° |
| 2026-05-07 12:54 | -22.34309 | 41.42339 | 34963 ft | 522 kts | 54° |
| 2026-05-07 12:55 | -22.30504 | 41.49026 | 34962 ft | 522 kts | 54° |
| 2026-05-07 12:55 | -22.26705 | 41.55696 | 34961 ft | 522 kts | 53° |
| 2026-05-07 12:56 | -22.22901 | 41.62364 | 34959 ft | 521 kts | 54° |
| 2026-05-07 12:56 | -22.19096 | 41.69021 | 34964 ft | 521 kts | 54° |
| 2026-05-07 12:57 | -22.15284 | 41.75680 | 34965 ft | 521 kts | 54° |
| 2026-05-07 12:57 | -22.11473 | 41.82336 | 34958 ft | 521 kts | 54° |
| 2026-05-07 12:58 | -22.07665 | 41.88979 | 34958 ft | 520 kts | 54° |
| 2026-05-07 12:58 | -22.03856 | 41.95612 | 34956 ft | 521 kts | 54° |
| 2026-05-07 12:59 | -22.00043 | 42.02245 | 34954 ft | 521 kts | 54° |
| 2026-05-07 12:59 | -21.96228 | 42.08871 | 34953 ft | 520 kts | 54° |
| 2026-05-07 13:00 | -21.92410 | 42.15498 | 34959 ft | 520 kts | 54° |
| 2026-05-07 13:00 | -21.88594 | 42.22113 | 34951 ft | 521 kts | 54° |
| 2026-05-07 13:01 | -21.84770 | 42.28730 | 34957 ft | 520 kts | 54° |
| 2026-05-07 13:01 | -21.80946 | 42.35343 | 34952 ft | 520 kts | 54° |
| 2026-05-07 13:02 | -21.77145 | 42.41904 | 34945 ft | 520 kts | 54° |
| 2026-05-07 13:02 | -21.73323 | 42.48494 | 34944 ft | 519 kts | 54° |
| 2026-05-07 13:03 | -21.69497 | 42.55083 | 34946 ft | 519 kts | 54° |
| 2026-05-07 13:03 | -21.65674 | 42.61662 | 34941 ft | 519 kts | 54° |
| 2026-05-07 13:04 | -21.61846 | 42.68244 | 34947 ft | 519 kts | 54° |
| 2026-05-07 13:04 | -21.58013 | 42.74820 | 34938 ft | 519 kts | 54° |
| 2026-05-07 13:05 | -21.54180 | 42.81393 | 34944 ft | 519 kts | 54° |
| 2026-05-07 13:05 | -21.50341 | 42.87968 | 34937 ft | 519 kts | 54° |
| 2026-05-07 13:06 | -21.46506 | 42.94526 | 34937 ft | 519 kts | 54° |
| 2026-05-07 13:06 | -21.43311 | 42.99981 | 34934 ft | 519 kts | 54° |
| 2026-05-07 13:07 | -21.39464 | 43.06545 | 34935 ft | 519 kts | 54° |
| 2026-05-07 13:07 | -21.35616 | 43.13102 | 34938 ft | 519 kts | 54° |
| 2026-05-07 13:08 | -21.31769 | 43.19655 | 34935 ft | 519 kts | 54° |
| 2026-05-07 13:08 | -21.27918 | 43.26205 | 34929 ft | 519 kts | 54° |
| 2026-05-07 13:09 | -21.24061 | 43.32754 | 34936 ft | 519 kts | 54° |
| 2026-05-07 13:09 | -21.20200 | 43.39301 | 34934 ft | 520 kts | 54° |
| 2026-05-07 13:10 | -21.16333 | 43.45853 | 34923 ft | 520 kts | 54° |
| 2026-05-07 13:10 | -21.12468 | 43.52393 | 34930 ft | 520 kts | 54° |
| 2026-05-07 13:11 | -21.08605 | 43.58927 | 34928 ft | 519 kts | 54° |
| 2026-05-07 13:11 | -21.04738 | 43.65456 | 34926 ft | 519 kts | 54° |
| 2026-05-07 13:12 | -21.00869 | 43.71982 | 34925 ft | 519 kts | 54° |
| 2026-05-07 13:12 | -20.96999 | 43.78502 | 34924 ft | 519 kts | 54° |
| 2026-05-07 13:13 | -20.93125 | 43.85017 | 34918 ft | 519 kts | 54° |
| 2026-05-07 13:13 | -20.89256 | 43.91518 | 34927 ft | 518 kts | 54° |
| 2026-05-07 13:14 | -20.85380 | 43.98023 | 34926 ft | 518 kts | 54° |
| 2026-05-07 13:14 | -20.81507 | 44.04520 | 34922 ft | 518 kts | 55° |
| 2026-05-07 13:15 | -20.77659 | 44.10967 | 34923 ft | 518 kts | 54° |
| 2026-05-07 13:15 | -20.73780 | 44.17452 | 34922 ft | 518 kts | 54° |
| 2026-05-07 13:16 | -20.69907 | 44.23925 | 34912 ft | 517 kts | 55° |
| 2026-05-07 13:16 | -20.66032 | 44.30395 | 34920 ft | 517 kts | 55° |
| 2026-05-07 13:17 | -20.62160 | 44.36850 | 34919 ft | 516 kts | 55° |
| 2026-05-07 13:17 | -20.58284 | 44.43304 | 34907 ft | 516 kts | 55° |
| 2026-05-07 13:18 | -20.54412 | 44.49745 | 34908 ft | 516 kts | 55° |
| 2026-05-07 13:18 | -20.50539 | 44.56180 | 34903 ft | 515 kts | 55° |
| 2026-05-07 13:19 | -20.46665 | 44.62611 | 34915 ft | 515 kts | 55° |
| 2026-05-07 13:19 | -20.42789 | 44.69040 | 34899 ft | 515 kts | 55° |
| 2026-05-07 13:20 | -20.38911 | 44.75459 | 34901 ft | 515 kts | 55° |
| 2026-05-07 13:20 | -20.35036 | 44.81871 | 34916 ft | 514 kts | 55° |
| 2026-05-07 13:21 | -20.31159 | 44.88275 | 34923 ft | 514 kts | 55° |
| 2026-05-07 13:21 | -20.27277 | 44.94684 | 34902 ft | 515 kts | 55° |
| 2026-05-07 13:22 | -20.23394 | 45.01084 | 34915 ft | 515 kts | 55° |
| 2026-05-07 13:22 | -20.19506 | 45.07489 | 34913 ft | 514 kts | 55° |
| 2026-05-07 13:23 | -20.15617 | 45.13887 | 34896 ft | 515 kts | 55° |
| 2026-05-07 13:23 | -20.11728 | 45.20276 | 34915 ft | 514 kts | 55° |
| 2026-05-07 13:24 | -20.07838 | 45.26664 | 34913 ft | 515 kts | 55° |
| 2026-05-07 13:24 | -20.03944 | 45.33050 | 34906 ft | 514 kts | 55° |
| 2026-05-07 13:25 | -20.00048 | 45.39430 | 34916 ft | 514 kts | 55° |
| 2026-05-07 13:25 | -19.96152 | 45.45806 | 34912 ft | 514 kts | 55° |
| 2026-05-07 13:26 | -19.92255 | 45.52178 | 34923 ft | 514 kts | 55° |
| 2026-05-07 13:26 | -19.88384 | 45.58501 | 34925 ft | 514 kts | 55° |
| 2026-05-07 13:27 | -19.84485 | 45.64861 | 34934 ft | 514 kts | 55° |
| 2026-05-07 13:27 | -19.80580 | 45.71217 | 34950 ft | 514 kts | 55° |
| 2026-05-07 13:28 | -19.76674 | 45.77574 | 34950 ft | 514 kts | 55° |
| 2026-05-07 13:28 | -19.72745 | 45.83961 | 34345 ft | 525 kts | 55° |
| 2026-05-07 13:29 | -19.70737 | 45.87221 | 33539 ft | 529 kts | 56° |
| 2026-05-07 13:29 | -19.68726 | 45.90486 | 32641 ft | 529 kts | 56° |
| 2026-05-07 13:29 | -19.66715 | 45.93749 | 32025 ft | 524 kts | 56° |
| 2026-05-07 13:29 | -19.64731 | 45.96968 | 31451 ft | 519 kts | 56° |
| 2026-05-07 13:30 | -19.62765 | 46.00158 | 30888 ft | 514 kts | 56° |
| 2026-05-07 13:30 | -19.60816 | 46.03317 | 30327 ft | 510 kts | 57° |
| 2026-05-07 13:30 | -19.58881 | 46.06452 | 29723 ft | 506 kts | 57° |
| 2026-05-07 13:30 | -19.56959 | 46.09562 | 29126 ft | 501 kts | 57° |
| 2026-05-07 13:31 | -19.55055 | 46.12640 | 28550 ft | 496 kts | 57° |
| 2026-05-07 13:31 | -19.53173 | 46.15681 | 28008 ft | 491 kts | 57° |
| 2026-05-07 13:31 | -19.51307 | 46.18697 | 27473 ft | 487 kts | 57° |
| 2026-05-07 13:31 | -19.49459 | 46.21680 | 26942 ft | 482 kts | 57° |
| 2026-05-07 13:32 | -19.47627 | 46.24635 | 26418 ft | 478 kts | 58° |
| 2026-05-07 13:32 | -19.45813 | 46.27563 | 25910 ft | 474 kts | 58° |
| 2026-05-07 13:32 | -19.44012 | 46.30469 | 25382 ft | 470 kts | 58° |
| 2026-05-07 13:32 | -19.42222 | 46.33355 | 24881 ft | 467 kts | 58° |
| 2026-05-07 13:33 | -19.40444 | 46.36221 | 24297 ft | 466 kts | 58° |
| 2026-05-07 13:33 | -19.38663 | 46.39090 | 23715 ft | 465 kts | 59° |
| 2026-05-07 13:33 | -19.36892 | 46.41942 | 23107 ft | 463 kts | 59° |
| 2026-05-07 13:33 | -19.35128 | 46.44780 | 22552 ft | 459 kts | 59° |
| 2026-05-07 13:34 | -19.33371 | 46.47526 | 22046 ft | 455 kts | 56° |
| 2026-05-07 13:34 | -19.29438 | 46.52731 | 21085 ft | 445 kts | 53° |
| 2026-05-07 13:34 | -19.27503 | 46.55209 | 20592 ft | 441 kts | 53° |
| 2026-05-07 13:35 | -19.25560 | 46.57702 | 20120 ft | 437 kts | 53° |
| 2026-05-07 13:35 | -19.23642 | 46.60178 | 19629 ft | 434 kts | 53° |
| 2026-05-07 13:35 | -19.21742 | 46.62643 | 19135 ft | 430 kts | 53° |
| 2026-05-07 13:35 | -19.19864 | 46.65094 | 18657 ft | 427 kts | 54° |
| 2026-05-07 13:36 | -19.18006 | 46.67523 | 18112 ft | 424 kts | 54° |
| 2026-05-07 13:36 | -19.16158 | 46.69939 | 17572 ft | 420 kts | 53° |
| 2026-05-07 13:36 | -19.14334 | 46.72322 | 17069 ft | 414 kts | 53° |
| 2026-05-07 13:36 | -19.12531 | 46.74677 | 16604 ft | 410 kts | 53° |
| 2026-05-07 13:37 | -19.10747 | 46.77004 | 16106 ft | 405 kts | 53° |
| 2026-05-07 13:37 | -19.08980 | 46.79311 | 15620 ft | 401 kts | 53° |
| 2026-05-07 13:37 | -19.07238 | 46.81587 | 15155 ft | 396 kts | 53° |
| 2026-05-07 13:37 | -19.05512 | 46.83841 | 14681 ft | 392 kts | 53° |
| 2026-05-07 13:38 | -19.03800 | 46.86071 | 14220 ft | 389 kts | 53° |
| 2026-05-07 13:38 | -19.02105 | 46.88278 | 13802 ft | 384 kts | 53° |
| 2026-05-07 13:38 | -19.00432 | 46.90457 | 13381 ft | 378 kts | 53° |
| 2026-05-07 13:38 | -18.98788 | 46.92598 | 12990 ft | 372 kts | 53° |
| 2026-05-07 13:39 | -18.97174 | 46.94700 | 12614 ft | 366 kts | 52° |
| 2026-05-07 13:39 | -18.95584 | 46.96771 | 12233 ft | 360 kts | 53° |
| 2026-05-07 13:39 | -18.94018 | 46.98806 | 11869 ft | 354 kts | 53° |
| 2026-05-07 13:39 | -18.92481 | 47.00805 | 11542 ft | 348 kts | 52° |
| 2026-05-07 13:40 | -18.90973 | 47.02768 | 11215 ft | 341 kts | 52° |
| 2026-05-07 13:40 | -18.89488 | 47.04698 | 10886 ft | 335 kts | 52° |
| 2026-05-07 13:40 | -18.88029 | 47.06593 | 10606 ft | 330 kts | 51° |
| 2026-05-07 13:40 | -18.86595 | 47.08457 | 10295 ft | 324 kts | 52° |
| 2026-05-07 13:41 | -18.85191 | 47.10283 | 9990 ft | 318 kts | 51° |
| 2026-05-07 13:41 | -18.83809 | 47.12077 | 9651 ft | 312 kts | 51° |
| 2026-05-07 13:41 | -18.82449 | 47.13839 | 9320 ft | 307 kts | 51° |
| 2026-05-07 13:41 | -18.81113 | 47.15570 | 9027 ft | 301 kts | 51° |
| 2026-05-07 13:42 | -18.79804 | 47.17271 | 8701 ft | 296 kts | 51° |
| 2026-05-07 13:42 | -18.78515 | 47.18945 | 8429 ft | 291 kts | 52° |
| 2026-05-07 13:42 | -18.77270 | 47.20563 | 8180 ft | 283 kts | 53° |
| 2026-05-07 13:42 | -18.76402 | 47.22343 | 8010 ft | 267 kts | 78° |
| 2026-05-07 13:43 | -18.76335 | 47.24229 | 8017 ft | 249 kts | 91° |
| 2026-05-07 13:43 | -18.76463 | 47.26066 | 7848 ft | 258 kts | 95° |
| 2026-05-07 13:43 | -18.76714 | 47.27948 | 7555 ft | 258 kts | 98° |
| 2026-05-07 13:43 | -18.76999 | 47.29798 | 7242 ft | 250 kts | 97° |
| 2026-05-07 13:44 | -18.77264 | 47.31546 | 6910 ft | 232 kts | 97° |
| 2026-05-07 13:44 | -18.77502 | 47.33147 | 6659 ft | 212 kts | 98° |
| 2026-05-07 13:44 | -18.77724 | 47.34646 | 6399 ft | 202 kts | 97° |
| 2026-05-07 13:44 | -18.77936 | 47.36076 | 6119 ft | 193 kts | 98° |
| 2026-05-07 13:45 | -18.78136 | 47.37419 | 5879 ft | 178 kts | 98° |
| 2026-05-07 13:45 | -18.78323 | 47.38661 | 5675 ft | 169 kts | 96° |
| 2026-05-07 13:45 | -18.78503 | 47.39893 | 5465 ft | 167 kts | 97° |
| 2026-05-07 13:45 | -18.78677 | 47.41072 | 5265 ft | 165 kts | 99° |
| 2026-05-07 13:46 | -18.78855 | 47.42247 | 5049 ft | 160 kts | 98° |
| 2026-05-07 13:46 | -18.79031 | 47.43440 | 4843 ft | 169 kts | 97° |
| 2026-05-07 13:46 | -18.79209 | 47.44669 | 4603 ft | 168 kts | 98° |
| 2026-05-07 13:46 | -18.79383 | 47.45844 | 4267 ft | 155 kts | 100° |
| 2026-05-07 13:47 | -18.79546 | 47.46908 | 4141 ft | 137 kts | 99° |
| 2026-05-07 13:47 | -18.79673 | 47.47752 | 4146 ft | 94 kts | 99° |
| 2026-05-07 13:47 | -18.79751 | 47.48273 | 4136 ft | 50 kts | 99° |
| 2026-05-07 13:47 | -18.79786 | 47.48441 | 4145 ft | 9 kts | 134° |
| 2026-05-07 13:48 | -18.79804 | 47.48486 | 4142 ft | 7 kts | 53° |
| 2026-05-07 13:48 | -18.79776 | 47.48471 | 4140 ft | 5 kts | 293° |
| 2026-05-07 13:48 | -18.79771 | 47.48421 | 4143 ft | 9 kts | 277° |
| 2026-05-07 13:48 | -18.79759 | 47.48340 | 4142 ft | 13 kts | 278° |
| 2026-05-07 13:49 | -18.79744 | 47.48236 | 4140 ft | 15 kts | 278° |
| 2026-05-07 13:49 | -18.79741 | 47.48142 | 4140 ft | 11 kts | 244° |
| 2026-05-07 13:49 | -18.79807 | 47.48110 | 4146 ft | 11 kts | 188° |
| 2026-05-07 13:49 | -18.79851 | 47.48104 | 4144 ft | 2 kts | 190° |
| 2026-05-07 13:50 | -18.79865 | 47.48100 | 4143 ft | 2 kts | 193° |
| 2026-05-07 13:50 | -18.79870 | 47.48099 | 4145 ft | 0 kts | 195° |
| 2026-05-07 13:50 | -18.79876 | 47.48097 | 4143 ft | 3 kts | 193° |
| 2026-05-07 13:51 | -18.79898 | 47.48093 | 4142 ft | 4 kts | 171° |
| 2026-05-07 13:51 | -18.79908 | 47.48072 | 4142 ft | 4 kts | 279° |
| 2026-05-07 13:51 | -18.79901 | 47.48044 | 4141 ft | 4 kts | 284° |
| 2026-05-07 13:51 | -18.79896 | 47.48015 | 4142 ft | 4 kts | 279° |
| 2026-05-07 13:52 | -18.79891 | 47.47986 | 4142 ft | 4 kts | 278° |
| 2026-05-07 13:52 | -18.79887 | 47.47957 | 4144 ft | 4 kts | 279° |
| 2026-05-07 13:52 | -18.79883 | 47.47928 | 4140 ft | 4 kts | 278° |
| 2026-05-07 13:52 | -18.79878 | 47.47899 | 4137 ft | 4 kts | 279° |
| 2026-05-07 13:53 | -18.79877 | 47.47870 | 4139 ft | 4 kts | 257° |
| 2026-05-07 13:53 | -18.79901 | 47.47856 | 4146 ft | 4 kts | 182° |
| 2026-05-07 13:53 | -18.79931 | 47.47852 | 4145 ft | 3 kts | 188° |
| 2026-05-07 13:53 | -18.79935 | 47.47851 | 4144 ft | 1 kts | 187° |
| 2026-05-07 13:54 | -18.79939 | 47.47851 | 4143 ft | 1 kts | 187° |
| 2026-05-07 13:54 | -18.79943 | 47.47850 | 4142 ft | 1 kts | 188° |
| 2026-05-07 13:54 | -18.79947 | 47.47850 | 4137 ft | 1 kts | 188° |
| 2026-05-07 13:54 | -18.79951 | 47.47849 | 4137 ft | 1 kts | 188° |
| 2026-05-07 13:55 | -18.79952 | 47.47849 | 4145 ft | 0 kts | 188° |